PHL weather

Philadelphia International Airport
Philadelphia, Pennsylvania, United States

Public forecast

Using degrees Fahrenheit for public forecast. Weather courtesy of forecast.io.

METAR (pilot weather report)

Retrieved 2018/06/18 13:54 UTC (57 minutes ago):

KPHL 181354Z 22008KT 10SM BKN300 27/21 A3003 RMK AO2 SLP167 T02720211

TAF (pilot weather forecast)

Retrieved 2018/06/18 12:43 UTC (2 hours ago):

TAF KPHL 181134Z 1812/1918 19005KT 6SM BR BKN250 FM181300 20006KT P6SM SCT250 FM181600 22011KT P6SM SCT080 FM190300 23006KT P6SM BKN100 FM190800 26006KT P6SM BKN070 FM191100 30009KT P6SM BKN050 FM191400 34010KT P6SM BKN090